Time;durP1;ratioP1;P1;durP2;ratioP2;P2;SDS_P1;SDS_P2;PMS_P1;PMS_P2;Temp;Humidity;BMP_temperature;BMP_pressure;BME280_temperature;BME280_humidity;BME280_pressure;Samples;Min_cycle;Max_cycle;Signal;HPM_P1;HPM_P2
2022/02/08 00:01:19;;;;;;;8.68;3.45;;;;;;;;;;5116514;28;20649;-67
2022/02/08 00:03:47;;;;;;;8.77;3.42;;;;;;;;;;5116757;28;20296;-67
2022/02/08 00:06:29;;;;;;;5.15;2.90;;;;;;;;;;5116865;28;20234;-67
2022/02/08 00:08:57;;;;;;;18.55;3.47;;;;;;;;;;5116430;28;20183;-68
2022/02/08 00:11:24;;;;;;;10.02;4.30;;;;;;;;;;5116523;28;20309;-67
2022/02/08 00:13:52;;;;;;;14.55;4.75;;;;;;;;;;5116307;28;20207;-67
2022/02/08 00:16:20;;;;;;;9.50;2.65;;;;;;;;;;5116896;28;20191;-67
2022/02/08 00:18:47;;;;;;;6.47;3.45;;;;;;;;;;5116585;28;20280;-67
2022/02/08 00:21:14;;;;;;;7.18;3.78;;;;;;;;;;5116529;28;20202;-68
2022/02/08 00:23:41;;;;;;;6.38;3.45;;;;;;;;;;5116456;28;20222;-67
2022/02/08 00:26:09;;;;;;;7.28;3.35;;;;;;;;;;5116749;28;20648;-68
2022/02/08 00:28:36;;;;;;;6.05;2.65;;;;;;;;;;5115973;28;20230;-67
2022/02/08 00:31:05;;;;;;;9.30;4.00;;;;;;;;;;5116784;28;20276;-68
2022/02/08 00:33:32;;;;;;;5.47;2.40;;;;;;;;;;5116412;28;20258;-67
2022/02/08 00:36:00;;;;;;;7.10;3.55;;;;;;;;;;5116171;28;20282;-67
2022/02/08 00:38:27;;;;;;;9.18;3.72;;;;;;;;;;5116187;28;20207;-68
2022/02/08 00:40:58;;;;;;;14.98;4.82;;;;;;;;;;5115767;28;20203;-67
2022/02/08 00:43:31;;;;;;;7.35;3.70;;;;;;;;;;5116301;28;20187;-67
2022/02/08 00:46:02;;;;;;;8.02;3.67;;;;;;;;;;5116025;28;20204;-67
2022/02/08 00:48:37;;;;;;;14.27;3.58;;;;;;;;;;5116591;28;20549;-67
2022/02/08 00:51:05;;;;;;;8.77;3.53;;;;;;;;;;5115956;28;20235;-68
2022/02/08 00:53:32;;;;;;;7.85;3.85;;;;;;;;;;5116618;28;20305;-67
2022/02/08 00:55:59;;;;;;;9.93;3.55;;;;;;;;;;5115466;28;20616;-67
2022/02/08 00:58:26;;;;;;;13.50;4.13;;;;;;;;;;5115488;28;20200;-68
2022/02/08 01:00:54;;;;;;;19.55;3.95;;;;;;;;;;5115379;28;20676;-67
2022/02/08 01:03:21;;;;;;;14.88;4.20;;;;;;;;;;5115320;28;20224;-67
2022/02/08 01:05:55;;;;;;;10.57;3.50;;;;;;;;;;5115650;28;20220;-67
2022/02/08 01:08:30;;;;;;;15.57;4.85;;;;;;;;;;5116427;28;20237;-67
2022/02/08 01:10:57;;;;;;;7.13;3.72;;;;;;;;;;5115413;28;20211;-67
2022/02/08 01:13:24;;;;;;;12.27;4.63;;;;;;;;;;5115375;28;20195;-67
2022/02/08 01:15:54;;;;;;;16.73;5.45;;;;;;;;;;5115354;28;20628;-67
2022/02/08 01:18:21;;;;;;;11.32;4.35;;;;;;;;;;5115502;28;20640;-67
2022/02/08 01:20:51;;;;;;;25.20;5.05;;;;;;;;;;5115378;28;20199;-66
2022/02/08 01:23:18;;;;;;;18.77;5.47;;;;;;;;;;5114934;28;20235;-66
2022/02/08 01:25:49;;;;;;;10.60;4.68;;;;;;;;;;5115649;28;20282;-67
2022/02/08 01:28:23;;;;;;;16.60;4.05;;;;;;;;;;5115756;28;20629;-67
2022/02/08 01:31:00;;;;;;;11.98;5.00;;;;;;;;;;5115114;28;20212;-66
2022/02/08 01:33:53;;;;;;;12.10;5.68;;;;;;;;;;5115651;28;20271;-66
2022/02/08 01:36:31;;;;;;;9.57;5.05;;;;;;;;;;5115625;28;20197;-67
2022/02/08 01:39:05;;;;;;;11.95;5.65;;;;;;;;;;5115663;28;20183;-66
2022/02/08 01:41:46;;;;;;;16.67;5.75;;;;;;;;;;5115233;28;20191;-66
2022/02/08 01:44:20;;;;;;;15.63;4.97;;;;;;;;;;5114709;28;20195;-67
2022/02/08 01:47:06;;;;;;;15.27;6.68;;;;;;;;;;5115134;28;20187;-66
2022/02/08 01:49:37;;;;;;;13.77;6.53;;;;;;;;;;5114679;28;20208;-66
2022/02/08 01:52:07;;;;;;;16.85;6.63;;;;;;;;;;5114364;28;20745;-67
2022/02/08 01:54:35;;;;;;;8.75;5.68;;;;;;;;;;5114428;28;20188;-67
2022/02/08 01:57:02;;;;;;;10.85;4.45;;;;;;;;;;5114505;28;20636;-67
2022/02/08 01:59:29;;;;;;;17.85;6.22;;;;;;;;;;5114815;28;20202;-67
2022/02/08 02:01:57;;;;;;;16.38;6.10;;;;;;;;;;5114302;28;20291;-66
2022/02/08 02:04:24;;;;;;;14.30;5.78;;;;;;;;;;5114493;28;20264;-66
2022/02/08 02:06:52;;;;;;;17.98;6.97;;;;;;;;;;5114867;28;20329;-66
2022/02/08 02:09:20;;;;;;;18.17;6.28;;;;;;;;;;5114404;28;20202;-66
2022/02/08 02:11:48;;;;;;;9.52;5.60;;;;;;;;;;5114863;28;20215;-67
2022/02/08 02:14:15;;;;;;;23.88;7.60;;;;;;;;;;5114024;28;20198;-66
2022/02/08 02:16:56;;;;;;;14.77;5.90;;;;;;;;;;5114248;28;20234;-66
2022/02/08 02:19:26;;;;;;;13.82;8.48;;;;;;;;;;5113995;28;20183;-71
2022/02/08 02:21:54;;;;;;;20.85;6.85;;;;;;;;;;5114067;28;20225;-66
2022/02/08 02:24:22;;;;;;;16.42;5.90;;;;;;;;;;5114005;28;20194;-67
2022/02/08 02:26:49;;;;;;;18.58;6.82;;;;;;;;;;5114007;28;20198;-67
2022/02/08 02:29:19;;;;;;;17.85;7.97;;;;;;;;;;5113785;28;20289;-68
2022/02/08 02:31:46;;;;;;;20.30;7.22;;;;;;;;;;5114035;28;20238;-67
2022/02/08 02:34:16;;;;;;;18.75;8.23;;;;;;;;;;5114557;28;20282;-68
2022/02/08 02:36:43;;;;;;;21.33;8.95;;;;;;;;;;5114039;28;20235;-67
2022/02/08 02:39:10;;;;;;;20.02;7.65;;;;;;;;;;5114489;28;20191;-66
2022/02/08 02:41:40;;;;;;;18.85;7.45;;;;;;;;;;5113619;28;20671;-67
2022/02/08 02:44:08;;;;;;;24.90;9.10;;;;;;;;;;5113621;28;20195;-66
2022/02/08 02:46:35;;;;;;;17.20;8.05;;;;;;;;;;5114359;28;20191;-67
2022/02/08 02:49:03;;;;;;;14.35;8.50;;;;;;;;;;5113910;28;20286;-67
2022/02/08 02:51:30;;;;;;;24.92;10.30;;;;;;;;;;5114088;28;20250;-67
2022/02/08 02:53:57;;;;;;;20.30;10.30;;;;;;;;;;5114074;28;20234;-68
2022/02/08 02:56:24;;;;;;;25.30;9.95;;;;;;;;;;5113777;28;20567;-67
2022/02/08 02:59:00;;;;;;;29.27;11.52;;;;;;;;;;5113380;28;20298;-68
2022/02/08 03:01:33;;;;;;;22.00;10.15;;;;;;;;;;5114606;28;20218;-68
2022/02/08 03:04:18;;;;;;;21.50;10.82;;;;;;;;;;5113671;28;20684;-67
2022/02/08 03:18:10;;;;;;;21.73;12.50;;;;;;;;;;5113572;28;20176;-69
2022/02/08 03:20:37;;;;;;;16.90;12.80;;;;;;;;;;5113323;28;20205;-69
2022/02/08 03:23:04;;;;;;;24.90;13.30;;;;;;;;;;5113277;28;20236;-68
2022/02/08 03:25:32;;;;;;;21.35;13.30;;;;;;;;;;5113667;28;20194;-68
2022/02/08 03:27:59;;;;;;;22.02;13.77;;;;;;;;;;5113474;28;20199;-68
2022/02/08 03:30:27;;;;;;;28.13;15.07;;;;;;;;;;5113588;28;20568;-67
2022/02/08 03:32:55;;;;;;;23.05;12.40;;;;;;;;;;5113412;28;20219;-68
2022/02/08 03:35:23;;;;;;;22.58;13.40;;;;;;;;;;5117008;28;20290;-67
2022/02/08 03:37:57;;;;;;;21.10;15.00;;;;;;;;;;5117423;28;20285;-68
2022/02/08 03:40:37;;;;;;;23.33;15.10;;;;;;;;;;5117348;28;20663;-68
2022/02/08 03:43:14;;;;;;;25.13;15.55;;;;;;;;;;5117611;28;20203;-68
2022/02/08 03:45:45;;;;;;;22.65;14.73;;;;;;;;;;5118036;28;20222;-67
2022/02/08 03:48:15;;;;;;;14.45;11.65;;;;;;;;;;5117100;28;20187;-67
2022/02/08 03:50:44;;;;;;;22.65;14.50;;;;;;;;;;5117649;28;20190;-68
2022/02/08 03:53:12;;;;;;;31.40;15.60;;;;;;;;;;5116934;28;20218;-67
2022/02/08 03:55:39;;;;;;;29.00;15.75;;;;;;;;;;5116753;28;20199;-67
2022/02/08 03:58:07;;;;;;;23.13;17.50;;;;;;;;;;5117169;28;20256;-67
2022/02/08 04:00:44;;;;;;;19.13;15.25;;;;;;;;;;5116622;28;20192;-67
2022/02/08 04:03:13;;;;;;;31.00;18.27;;;;;;;;;;5117049;28;20194;-68
2022/02/08 04:05:43;;;;;;;27.88;18.30;;;;;;;;;;5116493;28;20699;-68
2022/02/08 04:08:13;;;;;;;30.25;17.27;;;;;;;;;;5116584;28;20190;-69
2022/02/08 04:10:43;;;;;;;32.80;17.77;;;;;;;;;;5116752;28;20195;-68
2022/02/08 04:13:14;;;;;;;19.77;16.85;;;;;;;;;;5116311;28;20737;-70
2022/02/08 04:15:59;;;;;;;27.52;16.92;;;;;;;;;;5116995;28;20245;-68
2022/02/08 04:18:45;;;;;;;25.30;17.15;;;;;;;;;;5116881;28;20204;-69
2022/02/08 04:32:44;;;;;;;24.90;17.63;;;;;;;;;;5116380;28;20267;-68
2022/02/08 04:35:37;;;;;;;29.00;18.65;;;;;;;;;;5116905;28;20183;-68
2022/02/08 04:38:22;;;;;;;28.38;20.00;;;;;;;;;;5116537;28;20199;-69
2022/02/08 04:40:55;;;;;;;29.80;19.90;;;;;;;;;;5115874;28;20198;-68
2022/02/08 04:43:30;;;;;;;27.75;19.48;;;;;;;;;;5116820;28;20222;-68
2022/02/08 04:46:01;;;;;;;26.42;17.52;;;;;;;;;;5115969;28;20194;-68
2022/02/08 04:48:52;;;;;;;32.90;21.50;;;;;;;;;;5116028;28;20305;-69
2022/02/08 04:51:27;;;;;;;25.58;19.00;;;;;;;;;;5115930;28;20199;-68
2022/02/08 04:54:02;;;;;;;29.85;19.45;;;;;;;;;;5117048;28;20504;-68
2022/02/08 04:56:40;;;;;;;28.02;19.42;;;;;;;;;;5116502;28;20219;-68
2022/02/08 04:59:23;;;;;;;29.33;18.65;;;;;;;;;;5116143;28;20182;-68
2022/02/08 05:02:16;;;;;;;25.65;20.05;;;;;;;;;;5115797;28;20194;-68
2022/02/08 05:41:26;;;;;;;31.48;17.02;;;;;;;;;;5115111;28;20186;-67
2022/02/08 05:43:49;;;;;;;34.88;18.98;;;;;;;;;;5114795;28;20204;-68
2022/02/08 05:49:03;;;;;;;28.92;18.05;;;;;;;;;;5114419;28;20194;-67
2022/02/08 05:51:55;;;;;;;29.20;17.85;;;;;;;;;;5115430;28;20185;-69
2022/02/08 05:54:21;;;;;;;30.67;17.92;;;;;;;;;;5114302;28;20191;-67
2022/02/08 05:56:54;;;;;;;28.30;17.70;;;;;;;;;;5114398;28;20201;-68
2022/02/08 05:59:21;;;;;;;30.90;17.98;;;;;;;;;;5114369;28;20676;-68
2022/02/08 06:01:48;;;;;;;27.25;16.20;;;;;;;;;;5114678;28;20248;-68
2022/02/08 06:04:16;;;;;;;28.15;13.05;;;;;;;;;;5114183;28;20199;-68
2022/02/08 06:06:43;;;;;;;33.80;15.68;;;;;;;;;;5115032;28;20223;-68
2022/02/08 06:09:11;;;;;;;29.48;17.38;;;;;;;;;;5114471;28;20253;-68
2022/02/08 06:11:39;;;;;;;29.45;17.67;;;;;;;;;;5114684;28;20241;-68
2022/02/08 06:14:09;;;;;;;28.20;17.70;;;;;;;;;;5113969;28;20230;-68
2022/02/08 06:16:36;;;;;;;34.42;19.75;;;;;;;;;;5114230;28;20248;-68
2022/02/08 06:19:04;;;;;;;30.50;17.40;;;;;;;;;;5114340;28;20282;-68
2022/02/08 06:21:32;;;;;;;32.05;19.25;;;;;;;;;;5114341;28;20590;-67
2022/02/08 06:23:59;;;;;;;32.33;19.90;;;;;;;;;;5114320;28;20223;-68
2022/02/08 06:26:27;;;;;;;30.35;18.58;;;;;;;;;;5113970;28;20652;-67
2022/02/08 06:29:04;;;;;;;29.20;17.17;;;;;;;;;;5114749;28;20624;-69
2022/02/08 06:31:33;;;;;;;29.02;18.75;;;;;;;;;;5113335;28;20275;-69
2022/02/08 06:34:00;;;;;;;28.65;15.55;;;;;;;;;;5112710;28;20259;-68
2022/02/08 06:36:28;;;;;;;25.38;14.80;;;;;;;;;;5112905;28;20249;-68
2022/02/08 06:38:55;;;;;;;28.90;19.10;;;;;;;;;;5114152;28;20191;-68
2022/02/08 06:41:22;;;;;;;28.83;18.45;;;;;;;;;;5113679;28;20199;-66
2022/02/08 06:43:50;;;;;;;29.52;15.25;;;;;;;;;;5113794;28;20225;-66
2022/02/08 06:46:17;;;;;;;24.98;15.25;;;;;;;;;;5113923;28;20208;-67
2022/02/08 06:48:46;;;;;;;19.48;14.90;;;;;;;;;;5114073;28;20196;-67
2022/02/08 06:51:13;;;;;;;27.73;15.20;;;;;;;;;;5113668;28;20661;-67
2022/02/08 06:53:42;;;;;;;25.35;16.08;;;;;;;;;;5113944;28;20255;-67
2022/02/08 06:56:09;;;;;;;22.45;14.50;;;;;;;;;;5114248;28;20199;-66
2022/02/08 06:58:48;;;;;;;22.38;14.02;;;;;;;;;;5113538;28;20188;-67
2022/02/08 07:01:15;;;;;;;19.38;14.10;;;;;;;;;;5113909;28;20270;-68
2022/02/08 07:03:46;;;;;;;20.73;13.20;;;;;;;;;;5113875;28;20556;-67
2022/02/08 07:06:14;;;;;;;22.20;15.00;;;;;;;;;;5113737;28;20288;-67
2022/02/08 07:08:42;;;;;;;15.27;13.13;;;;;;;;;;5114099;28;20281;-65
2022/02/08 07:11:15;;;;;;;15.98;11.73;;;;;;;;;;5117868;28;20231;-67
2022/02/08 07:13:43;;;;;;;20.05;12.05;;;;;;;;;;5118325;28;20215;-67
2022/02/08 07:16:11;;;;;;;19.45;13.05;;;;;;;;;;5117872;28;20231;-67
2022/02/08 07:18:38;;;;;;;23.75;13.60;;;;;;;;;;5117547;28;20198;-66
2022/02/08 07:21:05;;;;;;;17.35;12.20;;;;;;;;;;5117471;28;20199;-67
2022/02/08 07:23:34;;;;;;;14.38;11.90;;;;;;;;;;5118501;28;20286;-68
2022/02/08 07:26:01;;;;;;;16.48;11.18;;;;;;;;;;5117850;28;20228;-67
2022/02/08 07:28:29;;;;;;;20.45;13.30;;;;;;;;;;5117517;28;20676;-68
2022/02/08 07:31:02;;;;;;;18.88;12.82;;;;;;;;;;5117176;28;20192;-67
2022/02/08 07:33:31;;;;;;;19.08;13.52;;;;;;;;;;5117439;28;20209;-68
2022/02/08 07:36:06;;;;;;;17.52;10.70;;;;;;;;;;5117326;28;20196;-67
2022/02/08 07:38:38;;;;;;;18.15;13.70;;;;;;;;;;5117054;28;20184;-67
2022/02/08 07:43:51;;;;;;;18.83;12.90;;;;;;;;;;5117224;28;20644;-68
2022/02/08 07:46:19;;;;;;;15.00;11.15;;;;;;;;;;5117056;28;20672;-67
2022/02/08 07:48:46;;;;;;;20.70;11.32;;;;;;;;;;5117197;28;20396;-67
2022/02/08 07:51:14;;;;;;;17.40;12.10;;;;;;;;;;5117194;28;20301;-67
2022/02/08 07:53:43;;;;;;;16.15;10.45;;;;;;;;;;5116685;28;20225;-67
2022/02/08 07:56:12;;;;;;;14.63;10.95;;;;;;;;;;5117539;28;20232;-67
2022/02/08 07:58:40;;;;;;;15.13;11.50;;;;;;;;;;5117324;28;20193;-67
2022/02/08 08:01:08;;;;;;;23.08;12.15;;;;;;;;;;5116680;28;20661;-67
2022/02/08 08:03:40;;;;;;;16.92;12.35;;;;;;;;;;5117511;28;20228;-68
2022/02/08 08:06:08;;;;;;;14.50;10.23;;;;;;;;;;5117284;28;20223;-67
2022/02/08 08:08:35;;;;;;;19.35;11.02;;;;;;;;;;5116883;28;20257;-67
2022/02/08 08:11:08;;;;;;;17.63;13.48;;;;;;;;;;5116337;28;20658;-67
2022/02/08 08:13:40;;;;;;;15.10;11.52;;;;;;;;;;5116769;28;20296;-67
2022/02/08 08:16:17;;;;;;;23.67;11.07;;;;;;;;;;5116710;28;20184;-67
2022/02/08 08:18:57;;;;;;;14.25;12.70;;;;;;;;;;5117013;28;20594;-66
2022/02/08 08:21:25;;;;;;;16.88;12.40;;;;;;;;;;5115469;28;20191;-67
2022/02/08 08:23:52;;;;;;;18.67;11.70;;;;;;;;;;5117063;28;20242;-67
2022/02/08 08:26:21;;;;;;;13.52;11.43;;;;;;;;;;5116468;28;20280;-67
2022/02/08 08:28:48;;;;;;;16.38;11.13;;;;;;;;;;5117045;28;20285;-68
2022/02/08 08:31:16;;;;;;;17.60;13.15;;;;;;;;;;5117196;28;20196;-67
2022/02/08 08:33:43;;;;;;;14.85;11.50;;;;;;;;;;5116195;28;20223;-68
2022/02/08 08:36:11;;;;;;;14.43;10.50;;;;;;;;;;5116368;28;20196;-66
2022/02/08 08:38:38;;;;;;;12.98;10.15;;;;;;;;;;5115902;28;20198;-67
2022/02/08 08:41:19;;;;;;;15.43;11.70;;;;;;;;;;5116715;28;20191;-67
2022/02/08 08:49:36;;;;;;;17.55;11.77;;;;;;;;;;5033172;28;20680;-66
2022/02/08 08:52:04;;;;;;;20.02;12.00;;;;;;;;;;5102647;28;20198;-67
2022/02/08 08:54:31;;;;;;;17.88;11.50;;;;;;;;;;5115795;28;20213;-66
2022/02/08 08:56:59;;;;;;;16.90;11.68;;;;;;;;;;5116171;28;20674;-66
2022/02/08 08:59:27;;;;;;;16.40;11.40;;;;;;;;;;5115836;28;20602;-66
2022/02/08 09:01:55;;;;;;;15.40;11.80;;;;;;;;;;5115686;28;20225;-67
2022/02/08 09:04:29;;;;;;;18.13;11.27;;;;;;;;;;5116019;28;20286;-66
2022/02/08 09:06:56;;;;;;;17.75;10.55;;;;;;;;;;5116029;28;20594;-66
2022/02/08 09:09:25;;;;;;;15.82;11.57;;;;;;;;;;5115590;28;20653;-67
2022/02/08 09:12:12;;;;;;;12.05;10.00;;;;;;;;;;5115993;28;20346;-68
2022/02/08 09:14:51;;;;;;;14.52;9.88;;;;;;;;;;5116001;28;20231;-66
2022/02/08 09:20:21;;;;;;;11.00;9.85;;;;;;;;;;5070488;28;20555;-67
2022/02/08 09:23:17;;;;;;;14.05;9.88;;;;;;;;;;5114941;28;20181;-66
2022/02/08 09:25:57;;;;;;;15.63;11.40;;;;;;;;;;5115925;28;20218;-66
2022/02/08 09:28:39;;;;;;;19.38;10.25;;;;;;;;;;5115171;28;20550;-66
2022/02/08 09:31:10;;;;;;;13.57;9.70;;;;;;;;;;5114690;28;20653;-67
2022/02/08 09:33:38;;;;;;;22.10;11.85;;;;;;;;;;5114611;28;20564;-67
2022/02/08 09:36:05;;;;;;;13.93;10.27;;;;;;;;;;5115134;28;20284;-66
2022/02/08 09:38:35;;;;;;;21.08;9.75;;;;;;;;;;5114889;28;20282;-67
2022/02/08 09:41:03;;;;;;;17.25;10.80;;;;;;;;;;5115125;28;20196;-67
2022/02/08 09:43:30;;;;;;;22.35;11.95;;;;;;;;;;5116304;28;20562;-66
2022/02/08 09:46:00;;;;;;;15.90;10.90;;;;;;;;;;5117124;28;20203;-67
2022/02/08 09:48:37;;;;;;;13.10;10.10;;;;;;;;;;5115429;28;20451;-67
2022/02/08 09:51:04;;;;;;;20.50;11.02;;;;;;;;;;5114664;28;20188;-67
2022/02/08 09:53:33;;;;;;;20.02;9.95;;;;;;;;;;5114659;28;20346;-67
2022/02/08 09:56:01;;;;;;;13.45;9.55;;;;;;;;;;5115783;28;20289;-66
2022/02/08 09:58:28;;;;;;;15.15;9.80;;;;;;;;;;5116258;28;20295;-66
2022/02/08 10:01:03;;;;;;;12.48;9.55;;;;;;;;;;5116194;28;20276;-67
2022/02/08 10:03:32;;;;;;;12.90;8.73;;;;;;;;;;5114719;28;20184;-66
2022/02/08 10:05:59;;;;;;;15.65;9.45;;;;;;;;;;5114362;28;20217;-67
2022/02/08 10:08:26;;;;;;;13.75;9.35;;;;;;;;;;5114633;28;20193;-66
2022/02/08 10:10:54;;;;;;;16.88;9.85;;;;;;;;;;5114598;28;20337;-66
2022/02/08 10:13:33;;;;;;;11.90;9.10;;;;;;;;;;5114990;28;20306;-66
2022/02/08 10:24:26;;;;;;;19.50;10.05;;;;;;;;;;5114519;28;20182;-67
2022/02/08 10:27:02;;;;;;;14.32;9.65;;;;;;;;;;5114445;28;20197;-66
2022/02/08 10:29:39;;;;;;;16.42;10.13;;;;;;;;;;5116503;28;20184;-66
2022/02/08 10:37:42;;;;;;;12.68;9.63;;;;;;;;;;5115060;28;20180;-66
2022/02/08 10:40:10;;;;;;;19.73;9.85;;;;;;;;;;5115151;28;20254;-67
2022/02/08 10:42:55;;;;;;;13.25;10.50;;;;;;;;;;5115102;28;20258;-66
2022/02/08 10:45:23;;;;;;;16.23;11.05;;;;;;;;;;5114829;28;20225;-66
2022/02/08 10:47:58;;;;;;;12.80;9.50;;;;;;;;;;5116206;28;20284;-67
2022/02/08 10:50:29;;;;;;;15.63;9.75;;;;;;;;;;5115847;28;20199;-66
2022/02/08 10:53:00;;;;;;;14.80;10.05;;;;;;;;;;5116895;28;20194;-67
2022/02/08 10:55:45;;;;;;;13.60;10.85;;;;;;;;;;5115789;28;20201;-66
2022/02/08 10:58:25;;;;;;;14.75;9.65;;;;;;;;;;5116694;28;20192;-67
2022/02/08 11:01:02;;;;;;;17.88;10.18;;;;;;;;;;5117002;28;20181;-67
2022/02/08 11:03:34;;;;;;;12.37;9.67;;;;;;;;;;5117009;28;20184;-67
2022/02/08 11:06:17;;;;;;;12.90;10.35;;;;;;;;;;5116576;28;20474;-67
2022/02/08 11:09:05;;;;;;;15.05;10.27;;;;;;;;;;5116947;28;20184;-67
2022/02/08 11:11:59;;;;;;;17.23;9.30;;;;;;;;;;5117030;28;20274;-67
2022/02/08 11:14:36;;;;;;;12.03;10.73;;;;;;;;;;5117863;28;20258;-67
2022/02/08 11:19:59;;;;;;;22.08;10.32;;;;;;;;;;5105207;28;20201;-66
2022/02/08 11:22:40;;;;;;;12.60;9.70;;;;;;;;;;5113694;28;20272;-67
2022/02/08 11:25:17;;;;;;;13.23;10.13;;;;;;;;;;5113889;28;20238;-66
2022/02/08 11:27:50;;;;;;;13.00;10.30;;;;;;;;;;5113455;28;20196;-68
2022/02/08 11:30:28;;;;;;;12.03;9.33;;;;;;;;;;5113364;28;20945;-67
2022/02/08 11:33:07;;;;;;;10.90;8.60;;;;;;;;;;5114167;28;20423;-67
2022/02/08 11:47:12;;;;;;;10.13;9.10;;;;;;;;;;5113617;28;20447;-67
2022/02/08 11:50:01;;;;;;;13.20;8.27;;;;;;;;;;5113522;28;20188;-67
2022/02/08 11:52:46;;;;;;;12.03;8.20;;;;;;;;;;5114187;28;20203;-66
2022/02/08 11:55:48;;;;;;;12.23;8.77;;;;;;;;;;5115446;28;20519;-67
2022/02/08 11:58:25;;;;;;;14.17;8.10;;;;;;;;;;5117690;28;20504;-67
2022/02/08 12:01:13;;;;;;;11.70;8.48;;;;;;;;;;5117233;28;20431;-68
2022/02/08 12:04:08;;;;;;;10.40;8.50;;;;;;;;;;5117353;28;20188;-67
2022/02/08 12:07:02;;;;;;;16.30;8.60;;;;;;;;;;5116905;28;20459;-67
2022/02/08 12:09:35;;;;;;;8.95;7.30;;;;;;;;;;5117594;28;20462;-66
2022/02/08 12:12:34;;;;;;;13.13;8.15;;;;;;;;;;5117365;28;20627;-66
2022/02/08 12:32:09;;;;;;;11.93;8.57;;;;;;;;;;5116126;28;20408;-67
2022/02/08 12:35:02;;;;;;;10.13;7.93;;;;;;;;;;5116036;28;20463;-66
2022/02/08 12:54:25;;;;;;;12.13;8.17;;;;;;;;;;5115871;28;20455;-66
2022/02/08 12:57:07;;;;;;;11.10;7.20;;;;;;;;;;5115868;28;20545;-68
2022/02/08 12:59:52;;;;;;;11.17;8.00;;;;;;;;;;5117211;28;20431;-68
2022/02/08 13:05:30;;;;;;;15.27;8.07;;;;;;;;;;5114571;27;20426;-66
2022/02/08 13:19:46;;;;;;;11.50;8.90;;;;;;;;;;5116037;28;20577;-67
2022/02/08 14:04:51;;;;;;;11.82;6.00;;;;;;;;;;5120646;28;20214;-67
2022/02/08 14:07:02;;;;;;;7.63;5.93;;;;;;;;;;5119789;28;20232;-67
2022/02/08 14:17:58;;;;;;;10.77;6.40;;;;;;;;;;5118414;28;20260;-67
2022/02/08 14:20:44;;;;;;;9.90;6.97;;;;;;;;;;5119331;28;20188;-67
2022/02/08 14:23:26;;;;;;;10.40;5.90;;;;;;;;;;5118254;28;20431;-68
2022/02/08 14:31:54;;;;;;;14.67;7.17;;;;;;;;;;5074658;28;20439;-67
2022/02/08 14:37:31;;;;;;;14.57;6.40;;;;;;;;;;5094712;28;20292;-68
2022/02/08 15:10:20;;;;;;;11.57;8.40;;;;;;;;;;5092197;28;20201;-69
2022/02/08 15:12:52;;;;;;;10.80;9.17;;;;;;;;;;5096273;28;20435;-68
2022/02/08 15:15:29;;;;;;;18.33;9.75;;;;;;;;;;5096195;28;20503;-68
2022/02/08 15:17:58;;;;;;;11.23;8.53;;;;;;;;;;5095555;28;20548;-67
2022/02/08 15:20:26;;;;;;;10.70;9.50;;;;;;;;;;5094183;28;20451;-67
2022/02/08 15:23:04;;;;;;;15.03;10.90;;;;;;;;;;5094919;28;20493;-67
2022/02/08 15:25:33;;;;;;;12.20;10.30;;;;;;;;;;5094763;28;20423;-68
2022/02/08 15:28:04;;;;;;;12.57;9.90;;;;;;;;;;5094522;28;20866;-67
2022/02/08 15:30:33;;;;;;;17.50;10.23;;;;;;;;;;5097774;28;20435;-68
2022/02/08 15:33:03;;;;;;;11.68;10.57;;;;;;;;;;5098828;28;20220;-67
2022/02/08 15:35:30;;;;;;;11.57;10.45;;;;;;;;;;5098686;28;20225;-68
2022/02/08 15:37:57;;;;;;;15.77;10.73;;;;;;;;;;5119455;28;20703;-68
2022/02/08 15:40:25;;;;;;;12.38;11.18;;;;;;;;;;5119835;28;20203;-68
2022/02/08 15:42:52;;;;;;;15.00;13.27;;;;;;;;;;5119794;28;20727;-69
2022/02/08 15:45:24;;;;;;;12.00;10.80;;;;;;;;;;5118758;28;20261;-69
2022/02/08 15:47:55;;;;;;;16.25;12.32;;;;;;;;;;5118280;28;20195;-68
2022/02/08 15:50:28;;;;;;;13.85;10.82;;;;;;;;;;5119569;28;20537;-68
2022/02/08 15:53:25;;;;;;;14.30;12.57;;;;;;;;;;5118692;28;20188;-70
2022/02/08 15:56:08;;;;;;;12.27;11.03;;;;;;;;;;5118878;28;20227;-69
2022/02/08 16:01:39;;;;;;;12.98;11.68;;;;;;;;;;5119393;28;20586;-69
2022/02/08 16:07:00;;;;;;;16.63;13.57;;;;;;;;;;5116525;28;20231;-69
2022/02/08 16:09:33;;;;;;;13.10;11.67;;;;;;;;;;5117452;28;20276;-68
2022/02/08 16:12:24;;;;;;;12.27;10.57;;;;;;;;;;5116555;28;20924;-68
2022/02/08 16:15:12;;;;;;;17.00;11.13;;;;;;;;;;5116969;28;20551;-68
2022/02/08 16:17:52;;;;;;;17.88;12.75;;;;;;;;;;5116952;28;20519;-68
2022/02/08 16:20:33;;;;;;;15.20;13.23;;;;;;;;;;5116698;28;20634;-68
2022/02/08 16:25:55;;;;;;;14.65;9.98;;;;;;;;;;5116000;28;20200;-68
2022/02/08 16:28:42;;;;;;;15.35;13.30;;;;;;;;;;5116844;28;20195;-67
2022/02/08 16:31:40;;;;;;;17.27;13.80;;;;;;;;;;5116167;28;20189;-68
2022/02/08 16:53:49;;;;;;;20.17;17.00;;;;;;;;;;5095671;28;20181;-66
2022/02/08 16:56:23;;;;;;;19.45;17.30;;;;;;;;;;5095233;28;20208;-66
2022/02/08 16:58:53;;;;;;;18.40;15.32;;;;;;;;;;5095797;28;20193;-67
2022/02/08 17:01:24;;;;;;;18.98;15.18;;;;;;;;;;5095471;28;20265;-67
2022/02/08 17:03:52;;;;;;;20.08;17.98;;;;;;;;;;5095178;28;20185;-66
2022/02/08 17:06:20;;;;;;;20.80;16.70;;;;;;;;;;5095185;28;20670;-66
2022/02/08 17:08:52;;;;;;;19.60;15.70;;;;;;;;;;5094998;28;20720;-67
2022/02/08 17:11:26;;;;;;;24.98;18.98;;;;;;;;;;5095348;28;20189;-68
2022/02/08 17:17:17;;;;;;;22.95;17.17;;;;;;;;;;5095106;28;20209;-68
2022/02/08 17:34:27;;;;;;;22.77;18.70;;;;;;;;;;5095844;28;20587;-68
2022/02/08 17:47:40;;;;;;;24.23;18.63;;;;;;;;;;5094555;28;20192;-67
2022/02/08 17:50:08;;;;;;;21.30;16.45;;;;;;;;;;5094338;28;20221;-68
2022/02/08 17:52:36;;;;;;;24.52;17.13;;;;;;;;;;5094232;28;20201;-67
2022/02/08 17:55:07;;;;;;;22.98;16.02;;;;;;;;;;5093971;28;20213;-67
2022/02/08 17:57:36;;;;;;;24.35;18.13;;;;;;;;;;5094256;28;20291;-67
2022/02/08 18:00:04;;;;;;;29.73;18.95;;;;;;;;;;5093951;28;20198;-66
2022/02/08 18:02:32;;;;;;;25.50;19.98;;;;;;;;;;5093894;28;20247;-67
2022/02/08 18:05:01;;;;;;;25.35;17.60;;;;;;;;;;5094103;28;20627;-69
2022/02/08 18:07:29;;;;;;;31.65;19.05;;;;;;;;;;5094268;28;20691;-67
2022/02/08 18:09:56;;;;;;;22.75;18.13;;;;;;;;;;5094249;28;20291;-68
2022/02/08 18:12:26;;;;;;;29.55;18.35;;;;;;;;;;5094231;28;20193;-67
2022/02/08 18:14:58;;;;;;;26.92;18.10;;;;;;;;;;5093745;28;20288;-69
2022/02/08 18:17:29;;;;;;;23.60;16.65;;;;;;;;;;5093796;28;20182;-68
2022/02/08 18:20:04;;;;;;;23.40;16.75;;;;;;;;;;5094210;28;20188;-68
2022/02/08 18:22:47;;;;;;;25.90;16.95;;;;;;;;;;5094527;28;20351;-68
2022/02/08 18:25:42;;;;;;;25.55;13.50;;;;;;;;;;5093951;28;20232;-68
2022/02/08 18:56:19;;;;;;;21.40;15.03;;;;;;;;;;5084203;28;20270;-67
2022/02/08 19:07:28;;;;;;;20.70;15.15;;;;;;;;;;5118493;28;20231;-68
2022/02/08 19:10:21;;;;;;;19.80;15.05;;;;;;;;;;5117878;28;20597;-68
2022/02/08 19:13:20;;;;;;;20.80;13.35;;;;;;;;;;5097633;28;20235;-70
2022/02/08 19:16:00;;;;;;;17.33;12.88;;;;;;;;;;5096988;28;20221;-70
2022/02/08 19:18:37;;;;;;;23.50;14.02;;;;;;;;;;5097404;28;20186;-69
2022/02/08 19:21:32;;;;;;;17.75;14.75;;;;;;;;;;5097417;28;20304;-69
2022/02/08 19:23:58;;;;;;;24.30;15.73;;;;;;;;;;5097180;28;20547;-70
2022/02/08 19:26:25;;;;;;;20.38;13.38;;;;;;;;;;5097296;28;20308;-73
2022/02/08 19:28:54;;;;;;;17.52;13.27;;;;;;;;;;5097636;28;20194;-72
2022/02/08 19:31:21;;;;;;;26.17;14.23;;;;;;;;;;5097213;28;20197;-70
2022/02/08 19:33:49;;;;;;;22.83;14.98;;;;;;;;;;5096986;28;20657;-71
2022/02/08 19:36:18;;;;;;;18.05;14.65;;;;;;;;;;5096957;28;20312;-71
2022/02/08 19:38:48;;;;;;;14.27;10.53;;;;;;;;;;5097122;28;20284;-71
2022/02/08 19:41:16;;;;;;;18.73;14.18;;;;;;;;;;5096702;28;20523;-70
2022/02/08 19:43:43;;;;;;;17.85;13.35;;;;;;;;;;5096595;28;20259;-71
2022/02/08 19:46:11;;;;;;;17.80;14.10;;;;;;;;;;5096522;28;20200;-72
2022/02/08 19:48:38;;;;;;;21.20;13.17;;;;;;;;;;5096688;28;20443;-69
2022/02/08 19:51:05;;;;;;;16.88;12.88;;;;;;;;;;5096446;28;20470;-73
2022/02/08 19:53:35;;;;;;;19.50;13.40;;;;;;;;;;5096396;28;20333;-71
2022/02/08 19:56:11;;;;;;;17.27;12.07;;;;;;;;;;5096916;28;20810;-66
2022/02/08 19:58:38;;;;;;;17.13;12.87;;;;;;;;;;5096155;28;20206;-66
2022/02/08 20:01:09;;;;;;;12.48;10.75;;;;;;;;;;5096871;28;20492;-68
2022/02/08 20:03:41;;;;;;;19.15;11.30;;;;;;;;;;5097089;28;20567;-66
2022/02/08 20:06:08;;;;;;;18.88;12.55;;;;;;;;;;5096675;28;20320;-66
2022/02/08 20:08:37;;;;;;;13.52;10.77;;;;;;;;;;5096254;28;20241;-66
2022/02/08 20:11:04;;;;;;;18.20;10.65;;;;;;;;;;5096085;28;20280;-66
2022/02/08 20:13:32;;;;;;;14.48;10.88;;;;;;;;;;5096097;28;20197;-66
2022/02/08 20:16:00;;;;;;;14.47;10.60;;;;;;;;;;5095720;28;20210;-66
2022/02/08 20:18:28;;;;;;;14.57;10.13;;;;;;;;;;5096057;28;20471;-66
2022/02/08 20:20:57;;;;;;;16.95;11.13;;;;;;;;;;5095988;28;20439;-66
2022/02/08 20:23:24;;;;;;;16.00;10.80;;;;;;;;;;5096296;28;20279;-67
2022/02/08 20:25:55;;;;;;;21.00;11.37;;;;;;;;;;5096165;28;20443;-68
2022/02/08 20:28:26;;;;;;;13.67;10.33;;;;;;;;;;5096322;28;20459;-66